Ashland, ME

5:56 AM EST on January 28, 2015 (GMT -0500)
Northern Aroostook Regional | Change Station
CLOSE
Current Station
Airport
Location: Frenchville,
Elevation: 988 ft
Nearby Weather Stations

Elev 988 ft 47.29 °N, 68.31 °W | Updated 46 minutes ago

Snow
Snow
8 °F
Feels Like -11 °F
N
20
Wind Variable Wind from North

Today
High -- | Low -- °F
--% Chance of Precip.
Yesterday
High -- | Low -- °F
Precip. -- in
7:02 AM 4:31 PM
Waxing Gibbous, 63% visible
Pressure 29.78 in
Visibility 1.2 miles
Clouds Overcast 1700 ft
Windchill -11 °F
Dew Point 3 °F
Humidity 80%
Rainfall 0.00 in
Snow Depth Not available.
UV 0 out of 12
Pollen .10 out of 12
Air Quality Not available.
Flu Activity Not available.
SPECI KFVE 281010Z AUTO 35017KT 1 1/4SM -SN OVC017 M13/M16 A2978 RMK AO2 P0000 T11331161

More Conditions Fewer Conditions

Pressure 29.78 in
Visibility 1.2 miles
Clouds Overcast 1700 ft
Windchill -11 °F
Dew Point 3 °F
Humidity 80%
Rainfall 0.00 in
Snow Depth Not available.
UV 0 out of 12
Pollen .10 out of 12
Air Quality Not available.
Flu Activity Not available.
SPECI KFVE 281010Z AUTO 35017KT 1 1/4SM -SN OVC017 M13/M16 A2978 RMK AO2 P0000 T11331161

More Conditions Fewer Conditions

10-Day Weather Forecast

Almanac

Astronomy

Jan. 28, 2015 Rise Set
Actual Time
Civil Twilight
Nautical Twilight
Astronomical Twilight
Moon
Length of Visible Light
Length of Day
Tomorrow will be .
, % of the Moon is Illuminated

Today's Extremes

State Highs State Lows

Community

WunderPhotos

Upload Photos

1,791,121 photos uploaded!

WunderBlogs® & News

Nearby

Air Quality

  Air Quality AQ Index Pollutant
Not available.

Snow Depth

Station Depth Elevation

Earthquake Activity

City Distance Mag. Time & Date
Minimum magnitude displayed is 2.5.

Coastal Water Temperatures

Place Temperature

Nearby Weather Stations